sensor_id;sensor_type;location;lat;lon;timestamp;P1;durP1;ratioP1;P2;durP2;ratioP2
50319;SDS011;36226;53.464;9.852;2022-07-23T00:00:45;3.67;;;0.80;;
50319;SDS011;36226;53.464;9.852;2022-07-23T00:03:12;2.80;;;0.68;;
50319;SDS011;36226;53.464;9.852;2022-07-23T00:05:37;2.65;;;1.00;;
50319;SDS011;36226;53.464;9.852;2022-07-23T00:08:02;3.35;;;0.98;;
50319;SDS011;36226;53.464;9.852;2022-07-23T00:10:28;3.15;;;1.00;;
50319;SDS011;36226;53.464;9.852;2022-07-23T00:12:53;5.65;;;1.05;;
50319;SDS011;36226;53.464;9.852;2022-07-23T00:15:19;4.03;;;1.05;;
50319;SDS011;36226;53.464;9.852;2022-07-23T00:17:44;4.38;;;1.05;;
50319;SDS011;36226;53.464;9.852;2022-07-23T00:20:09;4.13;;;0.90;;
50319;SDS011;36226;53.464;9.852;2022-07-23T00:22:35;2.30;;;1.05;;
50319;SDS011;36226;53.464;9.852;2022-07-23T00:25:00;3.70;;;1.20;;
50319;SDS011;36226;53.464;9.852;2022-07-23T00:27:26;3.88;;;1.17;;
50319;SDS011;36226;53.464;9.852;2022-07-23T00:29:51;3.38;;;1.00;;
50319;SDS011;36226;53.464;9.852;2022-07-23T00:32:16;6.07;;;1.13;;
50319;SDS011;36226;53.464;9.852;2022-07-23T00:34:42;3.00;;;1.00;;
50319;SDS011;36226;53.464;9.852;2022-07-23T00:37:07;2.72;;;1.10;;
50319;SDS011;36226;53.464;9.852;2022-07-23T00:39:32;4.78;;;1.23;;
50319;SDS011;36226;53.464;9.852;2022-07-23T00:41:58;4.30;;;1.33;;
50319;SDS011;36226;53.464;9.852;2022-07-23T00:44:24;2.92;;;1.10;;
50319;SDS011;36226;53.464;9.852;2022-07-23T00:46:52;4.35;;;1.25;;
50319;SDS011;36226;53.464;9.852;2022-07-23T00:49:21;4.18;;;1.20;;
50319;SDS011;36226;53.464;9.852;2022-07-23T00:51:48;5.10;;;1.25;;
50319;SDS011;36226;53.464;9.852;2022-07-23T00:54:14;2.50;;;1.13;;
50319;SDS011;36226;53.464;9.852;2022-07-23T00:56:41;2.63;;;0.98;;
50319;SDS011;36226;53.464;9.852;2022-07-23T00:59:07;5.35;;;1.40;;
50319;SDS011;36226;53.464;9.852;2022-07-23T01:01:33;2.00;;;0.90;;
50319;SDS011;36226;53.464;9.852;2022-07-23T01:03:58;5.78;;;1.20;;
50319;SDS011;36226;53.464;9.852;2022-07-23T01:06:24;3.25;;;1.30;;
50319;SDS011;36226;53.464;9.852;2022-07-23T01:08:49;2.42;;;1.08;;
50319;SDS011;36226;53.464;9.852;2022-07-23T01:11:14;5.50;;;1.30;;
50319;SDS011;36226;53.464;9.852;2022-07-23T01:13:41;4.03;;;1.10;;
50319;SDS011;36226;53.464;9.852;2022-07-23T01:16:07;4.03;;;1.10;;
50319;SDS011;36226;53.464;9.852;2022-07-23T01:18:32;2.92;;;1.20;;
50319;SDS011;36226;53.464;9.852;2022-07-23T01:20:57;4.22;;;1.00;;
50319;SDS011;36226;53.464;9.852;2022-07-23T01:23:23;2.85;;;1.20;;
50319;SDS011;36226;53.464;9.852;2022-07-23T01:25:48;2.60;;;1.20;;
50319;SDS011;36226;53.464;9.852;2022-07-23T01:28:14;4.95;;;1.40;;
50319;SDS011;36226;53.464;9.852;2022-07-23T01:30:40;3.38;;;1.13;;
50319;SDS011;36226;53.464;9.852;2022-07-23T01:33:05;6.10;;;1.20;;
50319;SDS011;36226;53.464;9.852;2022-07-23T01:35:31;4.53;;;1.35;;
50319;SDS011;36226;53.464;9.852;2022-07-23T01:37:56;2.78;;;1.10;;
50319;SDS011;36226;53.464;9.852;2022-07-23T01:40:21;3.55;;;1.02;;
50319;SDS011;36226;53.464;9.852;2022-07-23T01:42:47;5.05;;;1.20;;
50319;SDS011;36226;53.464;9.852;2022-07-23T01:45:12;4.50;;;1.40;;
50319;SDS011;36226;53.464;9.852;2022-07-23T01:47:37;4.88;;;1.17;;
50319;SDS011;36226;53.464;9.852;2022-07-23T01:50:03;3.40;;;1.65;;
50319;SDS011;36226;53.464;9.852;2022-07-23T01:52:28;2.97;;;1.25;;
50319;SDS011;36226;53.464;9.852;2022-07-23T01:54:54;3.15;;;1.40;;
50319;SDS011;36226;53.464;9.852;2022-07-23T01:57:19;3.78;;;1.00;;
50319;SDS011;36226;53.464;9.852;2022-07-23T01:59:44;2.60;;;1.38;;
50319;SDS011;36226;53.464;9.852;2022-07-23T02:02:10;5.53;;;1.40;;
50319;SDS011;36226;53.464;9.852;2022-07-23T02:04:35;2.38;;;1.00;;
50319;SDS011;36226;53.464;9.852;2022-07-23T02:07:01;2.55;;;1.38;;
50319;SDS011;36226;53.464;9.852;2022-07-23T02:09:26;2.97;;;1.20;;
50319;SDS011;36226;53.464;9.852;2022-07-23T02:11:52;5.78;;;1.75;;
50319;SDS011;36226;53.464;9.852;2022-07-23T02:14:17;2.60;;;1.20;;
50319;SDS011;36226;53.464;9.852;2022-07-23T02:16:42;2.55;;;1.30;;
50319;SDS011;36226;53.464;9.852;2022-07-23T02:19:08;3.00;;;1.20;;
50319;SDS011;36226;53.464;9.852;2022-07-23T02:21:33;5.05;;;1.30;;
50319;SDS011;36226;53.464;9.852;2022-07-23T02:23:58;3.97;;;1.08;;
50319;SDS011;36226;53.464;9.852;2022-07-23T02:26:24;2.97;;;1.23;;
50319;SDS011;36226;53.464;9.852;2022-07-23T02:28:49;3.83;;;1.23;;
50319;SDS011;36226;53.464;9.852;2022-07-23T02:31:15;4.50;;;1.20;;
50319;SDS011;36226;53.464;9.852;2022-07-23T02:33:40;3.95;;;1.50;;
50319;SDS011;36226;53.464;9.852;2022-07-23T02:36:05;3.63;;;1.15;;
50319;SDS011;36226;53.464;9.852;2022-07-23T02:38:31;2.85;;;1.17;;
50319;SDS011;36226;53.464;9.852;2022-07-23T02:40:56;6.88;;;1.65;;
50319;SDS011;36226;53.464;9.852;2022-07-23T02:43:22;3.95;;;1.30;;
50319;SDS011;36226;53.464;9.852;2022-07-23T02:45:47;4.78;;;1.30;;
50319;SDS011;36226;53.464;9.852;2022-07-23T02:48:12;6.32;;;1.75;;
50319;SDS011;36226;53.464;9.852;2022-07-23T02:50:38;4.45;;;1.80;;
50319;SDS011;36226;53.464;9.852;2022-07-23T02:53:04;4.40;;;1.58;;
50319;SDS011;36226;53.464;9.852;2022-07-23T02:55:29;6.32;;;1.38;;
50319;SDS011;36226;53.464;9.852;2022-07-23T02:57:56;6.70;;;1.65;;
50319;SDS011;36226;53.464;9.852;2022-07-23T03:00:21;3.55;;;1.48;;
50319;SDS011;36226;53.464;9.852;2022-07-23T03:02:46;3.47;;;1.35;;
50319;SDS011;36226;53.464;9.852;2022-07-23T03:05:12;4.53;;;1.50;;
50319;SDS011;36226;53.464;9.852;2022-07-23T03:07:37;2.03;;;1.30;;
50319;SDS011;36226;53.464;9.852;2022-07-23T03:10:02;4.03;;;1.58;;
50319;SDS011;36226;53.464;9.852;2022-07-23T03:12:28;4.32;;;1.63;;
50319;SDS011;36226;53.464;9.852;2022-07-23T03:14:53;3.00;;;1.45;;
50319;SDS011;36226;53.464;9.852;2022-07-23T03:17:19;4.65;;;1.80;;
50319;SDS011;36226;53.464;9.852;2022-07-23T03:19:44;3.40;;;1.58;;
50319;SDS011;36226;53.464;9.852;2022-07-23T03:22:10;7.20;;;1.45;;
50319;SDS011;36226;53.464;9.852;2022-07-23T03:24:35;3.70;;;1.70;;
50319;SDS011;36226;53.464;9.852;2022-07-23T03:27:19;3.47;;;1.77;;
50319;SDS011;36226;53.464;9.852;2022-07-23T03:29:44;3.25;;;1.50;;
50319;SDS011;36226;53.464;9.852;2022-07-23T03:32:10;2.38;;;1.58;;
50319;SDS011;36226;53.464;9.852;2022-07-23T03:34:35;3.85;;;1.80;;
50319;SDS011;36226;53.464;9.852;2022-07-23T03:37:01;5.68;;;2.00;;
50319;SDS011;36226;53.464;9.852;2022-07-23T03:39:26;4.25;;;2.00;;
50319;SDS011;36226;53.464;9.852;2022-07-23T03:41:52;4.18;;;1.88;;
50319;SDS011;36226;53.464;9.852;2022-07-23T03:44:18;6.15;;;2.20;;
50319;SDS011;36226;53.464;9.852;2022-07-23T03:46:43;5.22;;;2.38;;
50319;SDS011;36226;53.464;9.852;2022-07-23T03:49:08;5.00;;;2.13;;
50319;SDS011;36226;53.464;9.852;2022-07-23T03:51:33;5.97;;;2.15;;
50319;SDS011;36226;53.464;9.852;2022-07-23T03:53:59;4.65;;;2.70;;
50319;SDS011;36226;53.464;9.852;2022-07-23T03:56:24;5.43;;;2.42;;
50319;SDS011;36226;53.464;9.852;2022-07-23T03:58:51;5.72;;;2.53;;
50319;SDS011;36226;53.464;9.852;2022-07-23T04:01:16;3.00;;;2.20;;
50319;SDS011;36226;53.464;9.852;2022-07-23T04:03:41;5.90;;;2.67;;
50319;SDS011;36226;53.464;9.852;2022-07-23T04:06:07;8.20;;;2.70;;
50319;SDS011;36226;53.464;9.852;2022-07-23T04:08:32;6.28;;;2.60;;
50319;SDS011;36226;53.464;9.852;2022-07-23T04:10:58;3.65;;;2.58;;
50319;SDS011;36226;53.464;9.852;2022-07-23T04:13:23;5.07;;;2.47;;
50319;SDS011;36226;53.464;9.852;2022-07-23T04:15:48;7.93;;;2.67;;
50319;SDS011;36226;53.464;9.852;2022-07-23T04:18:15;4.63;;;2.47;;
50319;SDS011;36226;53.464;9.852;2022-07-23T04:20:42;5.15;;;2.75;;
50319;SDS011;36226;53.464;9.852;2022-07-23T04:23:10;6.55;;;3.00;;
50319;SDS011;36226;53.464;9.852;2022-07-23T04:25:36;3.25;;;2.38;;
50319;SDS011;36226;53.464;9.852;2022-07-23T04:28:01;5.70;;;2.63;;
50319;SDS011;36226;53.464;9.852;2022-07-23T04:30:26;5.93;;;2.78;;
50319;SDS011;36226;53.464;9.852;2022-07-23T04:32:52;4.22;;;2.53;;
50319;SDS011;36226;53.464;9.852;2022-07-23T04:35:17;5.10;;;2.60;;
50319;SDS011;36226;53.464;9.852;2022-07-23T04:37:43;6.03;;;2.70;;
50319;SDS011;36226;53.464;9.852;2022-07-23T04:40:08;5.53;;;2.10;;
50319;SDS011;36226;53.464;9.852;2022-07-23T04:42:34;3.65;;;2.20;;
50319;SDS011;36226;53.464;9.852;2022-07-23T04:44:59;3.50;;;1.98;;
50319;SDS011;36226;53.464;9.852;2022-07-23T04:47:25;5.05;;;2.40;;
50319;SDS011;36226;53.464;9.852;2022-07-23T04:49:50;5.22;;;2.28;;
50319;SDS011;36226;53.464;9.852;2022-07-23T04:52:15;9.23;;;2.58;;
50319;SDS011;36226;53.464;9.852;2022-07-23T04:54:41;3.85;;;2.45;;
50319;SDS011;36226;53.464;9.852;2022-07-23T04:57:06;5.90;;;2.15;;
50319;SDS011;36226;53.464;9.852;2022-07-23T04:59:31;3.72;;;2.50;;
50319;SDS011;36226;53.464;9.852;2022-07-23T05:01:57;4.78;;;2.40;;
50319;SDS011;36226;53.464;9.852;2022-07-23T05:04:22;5.47;;;2.75;;
50319;SDS011;36226;53.464;9.852;2022-07-23T05:06:47;4.65;;;2.45;;
50319;SDS011;36226;53.464;9.852;2022-07-23T05:09:13;6.28;;;2.63;;
50319;SDS011;36226;53.464;9.852;2022-07-23T05:11:38;4.32;;;2.38;;
50319;SDS011;36226;53.464;9.852;2022-07-23T05:14:03;5.43;;;2.60;;
50319;SDS011;36226;53.464;9.852;2022-07-23T05:16:29;5.97;;;2.60;;
50319;SDS011;36226;53.464;9.852;2022-07-23T05:18:54;8.07;;;2.75;;
50319;SDS011;36226;53.464;9.852;2022-07-23T05:21:19;3.95;;;2.75;;
50319;SDS011;36226;53.464;9.852;2022-07-23T05:23:45;2.92;;;2.15;;
50319;SDS011;36226;53.464;9.852;2022-07-23T05:26:10;5.60;;;2.55;;
50319;SDS011;36226;53.464;9.852;2022-07-23T05:28:36;3.30;;;2.20;;
50319;SDS011;36226;53.464;9.852;2022-07-23T05:31:01;7.90;;;2.63;;
50319;SDS011;36226;53.464;9.852;2022-07-23T05:33:26;6.20;;;2.28;;
50319;SDS011;36226;53.464;9.852;2022-07-23T05:35:52;5.22;;;2.60;;
50319;SDS011;36226;53.464;9.852;2022-07-23T05:38:17;6.70;;;2.45;;
50319;SDS011;36226;53.464;9.852;2022-07-23T05:40:42;4.28;;;2.28;;
50319;SDS011;36226;53.464;9.852;2022-07-23T05:43:08;6.93;;;2.60;;
50319;SDS011;36226;53.464;9.852;2022-07-23T05:45:33;4.85;;;2.33;;
50319;SDS011;36226;53.464;9.852;2022-07-23T05:47:58;6.07;;;2.55;;
50319;SDS011;36226;53.464;9.852;2022-07-23T05:50:24;4.20;;;2.35;;
50319;SDS011;36226;53.464;9.852;2022-07-23T05:52:49;4.07;;;2.97;;
50319;SDS011;36226;53.464;9.852;2022-07-23T05:55:15;4.85;;;2.72;;
50319;SDS011;36226;53.464;9.852;2022-07-23T05:57:40;4.20;;;2.85;;
50319;SDS011;36226;53.464;9.852;2022-07-23T06:00:06;7.88;;;4.45;;
50319;SDS011;36226;53.464;9.852;2022-07-23T06:02:33;4.65;;;2.90;;
50319;SDS011;36226;53.464;9.852;2022-07-23T06:04:58;4.57;;;3.15;;
50319;SDS011;36226;53.464;9.852;2022-07-23T06:07:24;6.93;;;3.15;;
50319;SDS011;36226;53.464;9.852;2022-07-23T06:09:49;5.90;;;3.00;;
50319;SDS011;36226;53.464;9.852;2022-07-23T06:12:18;7.15;;;2.53;;
50319;SDS011;36226;53.464;9.852;2022-07-23T06:14:43;5.43;;;3.00;;
50319;SDS011;36226;53.464;9.852;2022-07-23T06:17:08;4.80;;;2.65;;
50319;SDS011;36226;53.464;9.852;2022-07-23T06:19:34;3.47;;;2.70;;
50319;SDS011;36226;53.464;9.852;2022-07-23T06:21:59;5.70;;;3.00;;
50319;SDS011;36226;53.464;9.852;2022-07-23T06:27:02;3.25;;;2.40;;
50319;SDS011;36226;53.464;9.852;2022-07-23T06:29:28;3.95;;;2.45;;
50319;SDS011;36226;53.464;9.852;2022-07-23T06:31:53;6.25;;;2.35;;
50319;SDS011;36226;53.464;9.852;2022-07-23T06:34:18;6.68;;;2.40;;
50319;SDS011;36226;53.464;9.852;2022-07-23T06:36:44;2.97;;;2.10;;
50319;SDS011;36226;53.464;9.852;2022-07-23T06:39:09;4.45;;;2.20;;
50319;SDS011;36226;53.464;9.852;2022-07-23T06:41:34;7.63;;;2.25;;
50319;SDS011;36226;53.464;9.852;2022-07-23T06:44:00;4.90;;;2.00;;
50319;SDS011;36226;53.464;9.852;2022-07-23T06:46:25;2.35;;;2.03;;
50319;SDS011;36226;53.464;9.852;2022-07-23T06:48:50;4.07;;;2.13;;
50319;SDS011;36226;53.464;9.852;2022-07-23T06:51:16;5.68;;;2.30;;
50319;SDS011;36226;53.464;9.852;2022-07-23T06:53:41;3.45;;;2.05;;
50319;SDS011;36226;53.464;9.852;2022-07-23T06:56:06;2.35;;;1.50;;
50319;SDS011;36226;53.464;9.852;2022-07-23T06:58:32;4.63;;;1.60;;
50319;SDS011;36226;53.464;9.852;2022-07-23T07:00:57;4.03;;;1.48;;
50319;SDS011;36226;53.464;9.852;2022-07-23T07:03:23;2.08;;;1.30;;
50319;SDS011;36226;53.464;9.852;2022-07-23T07:05:48;1.75;;;1.00;;
50319;SDS011;36226;53.464;9.852;2022-07-23T07:08:14;3.42;;;0.90;;
50319;SDS011;36226;53.464;9.852;2022-07-23T07:10:40;2.70;;;0.80;;
50319;SDS011;36226;53.464;9.852;2022-07-23T07:13:05;2.00;;;0.80;;
50319;SDS011;36226;53.464;9.852;2022-07-23T07:15:31;3.75;;;1.05;;
50319;SDS011;36226;53.464;9.852;2022-07-23T07:17:56;0.90;;;0.80;;
50319;SDS011;36226;53.464;9.852;2022-07-23T07:20:21;2.33;;;0.70;;
50319;SDS011;36226;53.464;9.852;2022-07-23T07:22:48;2.40;;;0.80;;
50319;SDS011;36226;53.464;9.852;2022-07-23T07:25:13;1.75;;;0.73;;
50319;SDS011;36226;53.464;9.852;2022-07-23T07:27:39;2.65;;;0.70;;
50319;SDS011;36226;53.464;9.852;2022-07-23T07:30:04;4.63;;;0.70;;
50319;SDS011;36226;53.464;9.852;2022-07-23T07:32:30;1.40;;;0.77;;
50319;SDS011;36226;53.464;9.852;2022-07-23T07:34:57;2.35;;;0.85;;
50319;SDS011;36226;53.464;9.852;2022-07-23T07:37:26;0.77;;;0.50;;
50319;SDS011;36226;53.464;9.852;2022-07-23T07:39:51;1.95;;;0.70;;
50319;SDS011;36226;53.464;9.852;2022-07-23T07:42:16;1.45;;;0.60;;
50319;SDS011;36226;53.464;9.852;2022-07-23T07:44:42;1.50;;;0.65;;
50319;SDS011;36226;53.464;9.852;2022-07-23T07:47:07;1.10;;;0.65;;
50319;SDS011;36226;53.464;9.852;2022-07-23T07:49:32;2.95;;;0.60;;
50319;SDS011;36226;53.464;9.852;2022-07-23T07:51:58;1.85;;;0.70;;
50319;SDS011;36226;53.464;9.852;2022-07-23T07:54:23;2.20;;;0.80;;
50319;SDS011;36226;53.464;9.852;2022-07-23T07:56:48;1.20;;;0.57;;
50319;SDS011;36226;53.464;9.852;2022-07-23T07:59:14;1.33;;;0.60;;
50319;SDS011;36226;53.464;9.852;2022-07-23T08:01:39;3.00;;;0.52;;
50319;SDS011;36226;53.464;9.852;2022-07-23T08:04:05;0.50;;;0.50;;
50319;SDS011;36226;53.464;9.852;2022-07-23T08:06:30;1.98;;;0.60;;
50319;SDS011;36226;53.464;9.852;2022-07-23T08:08:56;0.73;;;0.60;;
50319;SDS011;36226;53.464;9.852;2022-07-23T08:11:21;1.73;;;0.68;;
50319;SDS011;36226;53.464;9.852;2022-07-23T08:13:46;1.58;;;0.75;;
50319;SDS011;36226;53.464;9.852;2022-07-23T08:16:12;2.42;;;0.40;;
50319;SDS011;36226;53.464;9.852;2022-07-23T08:18:37;2.25;;;0.57;;
50319;SDS011;36226;53.464;9.852;2022-07-23T08:21:02;1.70;;;0.40;;
50319;SDS011;36226;53.464;9.852;2022-07-23T08:23:30;2.00;;;0.50;;
50319;SDS011;36226;53.464;9.852;2022-07-23T08:25:56;0.90;;;0.50;;
50319;SDS011;36226;53.464;9.852;2022-07-23T08:28:21;1.63;;;0.40;;
50319;SDS011;36226;53.464;9.852;2022-07-23T08:30:47;0.73;;;0.30;;
50319;SDS011;36226;53.464;9.852;2022-07-23T08:33:16;1.58;;;0.32;;
50319;SDS011;36226;53.464;9.852;2022-07-23T08:35:44;2.08;;;0.20;;
50319;SDS011;36226;53.464;9.852;2022-07-23T08:38:14;1.27;;;0.30;;
50319;SDS011;36226;53.464;9.852;2022-07-23T08:40:43;1.90;;;0.40;;
50319;SDS011;36226;53.464;9.852;2022-07-23T08:43:14;1.95;;;0.30;;
50319;SDS011;36226;53.464;9.852;2022-07-23T08:45:42;1.33;;;0.43;;
50319;SDS011;36226;53.464;9.852;2022-07-23T08:48:15;0.65;;;0.30;;
50319;SDS011;36226;53.464;9.852;2022-07-23T08:50:43;0.93;;;0.40;;
50319;SDS011;36226;53.464;9.852;2022-07-23T08:53:10;1.17;;;0.40;;
50319;SDS011;36226;53.464;9.852;2022-07-23T08:55:35;1.13;;;0.40;;
50319;SDS011;36226;53.464;9.852;2022-07-23T08:58:01;0.70;;;0.35;;
50319;SDS011;36226;53.464;9.852;2022-07-23T09:00:27;0.95;;;0.30;;
50319;SDS011;36226;53.464;9.852;2022-07-23T09:02:53;1.23;;;0.30;;
50319;SDS011;36226;53.464;9.852;2022-07-23T09:05:19;0.50;;;0.40;;
50319;SDS011;36226;53.464;9.852;2022-07-23T09:10:49;0.63;;;0.40;;
50319;SDS011;36226;53.464;9.852;2022-07-23T09:16:49;0.45;;;0.30;;
50319;SDS011;36226;53.464;9.852;2022-07-23T09:19:00;0.25;;;0.17;;
50319;SDS011;36226;53.464;9.852;2022-07-23T09:21:30;1.02;;;0.25;;
50319;SDS011;36226;53.464;9.852;2022-07-23T09:29:24;0.88;;;0.40;;
50319;SDS011;36226;53.464;9.852;2022-07-23T09:31:57;1.30;;;0.30;;
50319;SDS011;36226;53.464;9.852;2022-07-23T09:34:30;0.60;;;0.30;;
50319;SDS011;36226;53.464;9.852;2022-07-23T09:37:13;0.60;;;0.40;;
50319;SDS011;36226;53.464;9.852;2022-07-23T09:39:40;1.67;;;0.30;;
50319;SDS011;36226;53.464;9.852;2022-07-23T09:44:43;0.70;;;0.50;;
50319;SDS011;36226;53.464;9.852;2022-07-23T09:47:10;3.10;;;0.40;;
50319;SDS011;36226;53.464;9.852;2022-07-23T09:49:35;0.40;;;0.38;;
50319;SDS011;36226;53.464;9.852;2022-07-23T09:52:01;3.22;;;0.68;;
50319;SDS011;36226;53.464;9.852;2022-07-23T09:54:31;1.48;;;0.50;;
50319;SDS011;36226;53.464;9.852;2022-07-23T09:59:38;1.20;;;0.40;;
50319;SDS011;36226;53.464;9.852;2022-07-23T10:02:04;1.67;;;0.40;;
50319;SDS011;36226;53.464;9.852;2022-07-23T10:04:33;0.70;;;0.40;;
50319;SDS011;36226;53.464;9.852;2022-07-23T10:07:00;1.40;;;0.38;;
50319;SDS011;36226;53.464;9.852;2022-07-23T10:09:28;1.27;;;0.50;;
50319;SDS011;36226;53.464;9.852;2022-07-23T10:11:56;0.63;;;0.30;;
50319;SDS011;36226;53.464;9.852;2022-07-23T10:14:26;2.67;;;0.47;;
50319;SDS011;36226;53.464;9.852;2022-07-23T10:16:54;0.45;;;0.20;;
50319;SDS011;36226;53.464;9.852;2022-07-23T10:19:19;1.25;;;0.20;;
50319;SDS011;36226;53.464;9.852;2022-07-23T10:21:46;1.05;;;0.20;;
50319;SDS011;36226;53.464;9.852;2022-07-23T10:24:30;1.55;;;0.70;;
50319;SDS011;36226;53.464;9.852;2022-07-23T10:27:20;3.05;;;1.30;;
50319;SDS011;36226;53.464;9.852;2022-07-23T10:33:20;1.40;;;0.50;;
50319;SDS011;36226;53.464;9.852;2022-07-23T10:38:43;0.77;;;0.30;;
50319;SDS011;36226;53.464;9.852;2022-07-23T10:41:19;1.90;;;0.30;;
50319;SDS011;36226;53.464;9.852;2022-07-23T10:44:05;2.08;;;0.30;;
50319;SDS011;36226;53.464;9.852;2022-07-23T10:46:34;1.15;;;0.35;;
50319;SDS011;36226;53.464;9.852;2022-07-23T10:54:41;0.70;;;0.20;;
50319;SDS011;36226;53.464;9.852;2022-07-23T10:57:10;1.90;;;0.30;;
50319;SDS011;36226;53.464;9.852;2022-07-23T11:04:59;0.40;;;0.20;;
50319;SDS011;36226;53.464;9.852;2022-07-23T11:07:28;0.98;;;0.25;;
50319;SDS011;36226;53.464;9.852;2022-07-23T11:09:53;0.32;;;0.20;;
50319;SDS011;36226;53.464;9.852;2022-07-23T11:17:26;0.90;;;0.20;;
50319;SDS011;36226;53.464;9.852;2022-07-23T11:20:15;0.38;;;0.13;;
50319;SDS011;36226;53.464;9.852;2022-07-23T11:25:07;0.28;;;0.10;;
50319;SDS011;36226;53.464;9.852;2022-07-23T11:27:36;0.80;;;0.20;;
50319;SDS011;36226;53.464;9.852;2022-07-23T11:30:02;0.52;;;0.20;;
50319;SDS011;36226;53.464;9.852;2022-07-23T11:32:29;0.65;;;0.25;;
50319;SDS011;36226;53.464;9.852;2022-07-23T11:34:57;0.32;;;0.30;;
50319;SDS011;36226;53.464;9.852;2022-07-23T11:37:32;1.63;;;0.20;;
50319;SDS011;36226;53.464;9.852;2022-07-23T11:39:57;0.63;;;0.20;;
50319;SDS011;36226;53.464;9.852;2022-07-23T11:42:23;1.17;;;0.30;;
50319;SDS011;36226;53.464;9.852;2022-07-23T11:44:49;1.00;;;0.30;;
50319;SDS011;36226;53.464;9.852;2022-07-23T11:47:20;0.10;;;0.10;;
50319;SDS011;36226;53.464;9.852;2022-07-23T11:49:54;0.82;;;0.30;;
50319;SDS011;36226;53.464;9.852;2022-07-23T11:52:21;0.35;;;0.22;;
50319;SDS011;36226;53.464;9.852;2022-07-23T11:54:48;0.63;;;0.25;;
50319;SDS011;36226;53.464;9.852;2022-07-23T11:57:21;1.50;;;0.30;;
50319;SDS011;36226;53.464;9.852;2022-07-23T11:59:50;1.80;;;0.30;;
50319;SDS011;36226;53.464;9.852;2022-07-23T12:02:19;0.55;;;0.30;;
50319;SDS011;36226;53.464;9.852;2022-07-23T12:04:45;0.70;;;0.40;;
50319;SDS011;36226;53.464;9.852;2022-07-23T12:07:31;1.30;;;0.40;;
50319;SDS011;36226;53.464;9.852;2022-07-23T12:12:51;0.50;;;0.40;;
50319;SDS011;36226;53.464;9.852;2022-07-23T12:15:28;1.35;;;0.40;;
50319;SDS011;36226;53.464;9.852;2022-07-23T12:17:56;0.82;;;0.30;;
50319;SDS011;36226;53.464;9.852;2022-07-23T12:20:23;3.13;;;0.40;;
50319;SDS011;36226;53.464;9.852;2022-07-23T12:22:51;0.88;;;0.40;;
50319;SDS011;36226;53.464;9.852;2022-07-23T12:25:22;2.15;;;0.50;;
50319;SDS011;36226;53.464;9.852;2022-07-23T12:30:51;2.55;;;0.40;;
50319;SDS011;36226;53.464;9.852;2022-07-23T12:33:28;1.40;;;0.45;;
50319;SDS011;36226;53.464;9.852;2022-07-23T12:35:55;0.60;;;0.30;;
50319;SDS011;36226;53.464;9.852;2022-07-23T12:38:22;3.55;;;0.75;;
50319;SDS011;36226;53.464;9.852;2022-07-23T12:48:15;1.50;;;0.70;;
50319;SDS011;36226;53.464;9.852;2022-07-23T12:51:02;1.92;;;0.60;;
50319;SDS011;36226;53.464;9.852;2022-07-23T12:56:08;5.25;;;1.50;;
50319;SDS011;36226;53.464;9.852;2022-07-23T13:01:22;2.97;;;0.80;;
50319;SDS011;36226;53.464;9.852;2022-07-23T13:06:37;1.48;;;0.70;;
50319;SDS011;36226;53.464;9.852;2022-07-23T13:09:05;2.35;;;0.70;;
50319;SDS011;36226;53.464;9.852;2022-07-23T13:11:32;2.22;;;0.70;;
50319;SDS011;36226;53.464;9.852;2022-07-23T13:13:58;4.78;;;0.77;;
50319;SDS011;36226;53.464;9.852;2022-07-23T13:16:25;0.98;;;0.60;;
50319;SDS011;36226;53.464;9.852;2022-07-23T13:18:51;3.95;;;0.63;;
50319;SDS011;36226;53.464;9.852;2022-07-23T13:21:17;0.70;;;0.52;;
50319;SDS011;36226;53.464;9.852;2022-07-23T13:23:42;2.28;;;0.60;;
50319;SDS011;36226;53.464;9.852;2022-07-23T13:26:07;3.22;;;0.70;;
50319;SDS011;36226;53.464;9.852;2022-07-23T13:28:33;3.15;;;0.60;;
50319;SDS011;36226;53.464;9.852;2022-07-23T13:30:58;0.93;;;0.52;;
50319;SDS011;36226;53.464;9.852;2022-07-23T13:33:24;2.55;;;0.73;;
50319;SDS011;36226;53.464;9.852;2022-07-23T13:35:50;1.88;;;0.47;;
50319;SDS011;36226;53.464;9.852;2022-07-23T13:38:16;2.20;;;0.80;;
50319;SDS011;36226;53.464;9.852;2022-07-23T13:40:43;2.70;;;0.57;;
50319;SDS011;36226;53.464;9.852;2022-07-23T13:43:11;2.20;;;0.60;;
50319;SDS011;36226;53.464;9.852;2022-07-23T13:45:38;3.30;;;0.70;;
50319;SDS011;36226;53.464;9.852;2022-07-23T13:48:04;2.15;;;0.50;;
50319;SDS011;36226;53.464;9.852;2022-07-23T13:50:31;2.03;;;0.52;;
50319;SDS011;36226;53.464;9.852;2022-07-23T13:52:57;1.00;;;0.55;;
50319;SDS011;36226;53.464;9.852;2022-07-23T13:55:25;2.72;;;0.55;;
50319;SDS011;36226;53.464;9.852;2022-07-23T13:57:51;1.08;;;0.70;;
50319;SDS011;36226;53.464;9.852;2022-07-23T14:00:16;0.77;;;0.50;;
50319;SDS011;36226;53.464;9.852;2022-07-23T14:02:42;0.60;;;0.50;;
50319;SDS011;36226;53.464;9.852;2022-07-23T14:05:08;0.55;;;0.35;;
50319;SDS011;36226;53.464;9.852;2022-07-23T14:07:35;3.13;;;0.60;;
50319;SDS011;36226;53.464;9.852;2022-07-23T14:10:01;1.40;;;0.40;;
50319;SDS011;36226;53.464;9.852;2022-07-23T14:12:27;2.58;;;0.50;;
50319;SDS011;36226;53.464;9.852;2022-07-23T14:14:53;0.73;;;0.35;;
50319;SDS011;36226;53.464;9.852;2022-07-23T14:17:18;0.90;;;0.40;;
50319;SDS011;36226;53.464;9.852;2022-07-23T14:19:44;1.50;;;0.60;;
50319;SDS011;36226;53.464;9.852;2022-07-23T14:22:09;0.75;;;0.47;;
50319;SDS011;36226;53.464;9.852;2022-07-23T14:24:34;1.83;;;0.57;;
50319;SDS011;36226;53.464;9.852;2022-07-23T14:27:00;1.15;;;0.52;;
50319;SDS011;36226;53.464;9.852;2022-07-23T14:29:26;0.73;;;0.40;;
50319;SDS011;36226;53.464;9.852;2022-07-23T14:31:52;1.90;;;0.50;;
50319;SDS011;36226;53.464;9.852;2022-07-23T14:34:17;2.38;;;0.52;;
50319;SDS011;36226;53.464;9.852;2022-07-23T14:36:43;1.45;;;0.45;;
50319;SDS011;36226;53.464;9.852;2022-07-23T14:39:08;1.67;;;0.40;;
50319;SDS011;36226;53.464;9.852;2022-07-23T14:41:34;1.65;;;0.45;;
50319;SDS011;36226;53.464;9.852;2022-07-23T14:44:00;0.90;;;0.40;;
50319;SDS011;36226;53.464;9.852;2022-07-23T14:46:26;1.45;;;0.45;;
50319;SDS011;36226;53.464;9.852;2022-07-23T14:48:52;1.35;;;0.30;;
50319;SDS011;36226;53.464;9.852;2022-07-23T14:51:17;1.42;;;0.50;;
50319;SDS011;36226;53.464;9.852;2022-07-23T14:53:42;1.63;;;0.43;;
50319;SDS011;36226;53.464;9.852;2022-07-23T14:56:08;1.05;;;0.50;;
50319;SDS011;36226;53.464;9.852;2022-07-23T14:58:33;3.80;;;0.43;;
50319;SDS011;36226;53.464;9.852;2022-07-23T15:00:59;1.65;;;0.50;;
50319;SDS011;36226;53.464;9.852;2022-07-23T15:03:24;1.98;;;0.50;;
50319;SDS011;36226;53.464;9.852;2022-07-23T15:05:49;2.38;;;0.50;;
50319;SDS011;36226;53.464;9.852;2022-07-23T15:08:15;0.75;;;0.40;;
50319;SDS011;36226;53.464;9.852;2022-07-23T15:10:40;0.50;;;0.30;;
50319;SDS011;36226;53.464;9.852;2022-07-23T15:13:06;0.47;;;0.25;;
50319;SDS011;36226;53.464;9.852;2022-07-23T15:15:31;1.75;;;0.50;;
50319;SDS011;36226;53.464;9.852;2022-07-23T15:17:56;1.83;;;0.45;;
50319;SDS011;36226;53.464;9.852;2022-07-23T15:20:22;2.20;;;0.80;;
50319;SDS011;36226;53.464;9.852;2022-07-23T15:22:47;1.08;;;0.60;;
50319;SDS011;36226;53.464;9.852;2022-07-23T15:25:13;4.60;;;0.68;;
50319;SDS011;36226;53.464;9.852;2022-07-23T15:27:38;0.70;;;0.40;;
50319;SDS011;36226;53.464;9.852;2022-07-23T15:30:04;0.57;;;0.47;;
50319;SDS011;36226;53.464;9.852;2022-07-23T15:32:30;2.65;;;0.60;;
50319;SDS011;36226;53.464;9.852;2022-07-23T15:34:55;3.10;;;0.50;;
50319;SDS011;36226;53.464;9.852;2022-07-23T15:37:24;0.93;;;0.50;;
50319;SDS011;36226;53.464;9.852;2022-07-23T15:39:49;0.47;;;0.35;;
50319;SDS011;36226;53.464;9.852;2022-07-23T15:42:15;2.17;;;0.50;;
50319;SDS011;36226;53.464;9.852;2022-07-23T15:44:41;2.40;;;0.70;;
50319;SDS011;36226;53.464;9.852;2022-07-23T15:47:08;1.88;;;0.77;;
50319;SDS011;36226;53.464;9.852;2022-07-23T15:49:36;1.42;;;0.70;;